Time;durP1;ratioP1;P1;durP2;ratioP2;P2;SDS_P1;SDS_P2;PMS_P1;PMS_P2;Temp;Humidity;BMP_temperature;BMP_pressure;BME280_temperature;BME280_humidity;BME280_pressure;Samples;Min_cycle;Max_cycle;Signal;HPM_P1;HPM_P2
2023/08/22 00:00:44;;;;;;;12.02;4.30;;;20.80;66.70;;;;;;9182035;19;20022;-72
2023/08/22 00:03:49;;;;;;;10.85;3.58;;;20.80;66.80;;;;;;9182766;19;20014;-71
2023/08/22 00:07:00;;;;;;;10.55;3.55;;;20.80;66.80;;;;;;9181903;19;20504;-69
2023/08/22 00:10:06;;;;;;;8.98;3.42;;;20.80;67.00;;;;;;9182076;19;20022;-69
2023/08/22 00:13:14;;;;;;;8.35;3.15;;;20.80;67.00;;;;;;9183119;19;20010;-70
2023/08/22 00:16:19;;;;;;;9.52;3.53;;;20.80;67.00;;;;;;9182622;19;20061;-70
2023/08/22 00:19:27;;;;;;;10.80;3.67;;;20.80;67.10;;;;;;9183240;19;20019;-71
2023/08/22 00:22:37;;;;;;;13.13;4.05;;;20.70;67.10;;;;;;9181560;19;20011;-72
2023/08/22 00:25:45;;;;;;;11.18;3.72;;;20.70;67.20;;;;;;9181340;19;20018;-72
2023/08/22 00:28:50;;;;;;;13.80;3.97;;;20.70;67.20;;;;;;9182975;19;20590;-72
2023/08/22 00:32:00;;;;;;;10.23;3.60;;;20.70;67.30;;;;;;9179774;19;20020;-75
2023/08/22 00:35:14;;;;;;;11.45;3.80;;;20.70;67.40;;;;;;9183113;19;20044;-69
2023/08/22 00:38:25;;;;;;;9.35;3.78;;;20.60;67.40;;;;;;9180679;19;20022;-71
2023/08/22 00:41:31;;;;;;;11.43;4.95;;;20.60;67.50;;;;;;9181895;19;20490;-73
2023/08/22 00:44:38;;;;;;;9.82;4.00;;;20.60;67.50;;;;;;9178814;19;20019;-73
2023/08/22 00:47:43;;;;;;;8.32;3.42;;;20.60;67.60;;;;;;9180524;19;20018;-70
2023/08/22 00:50:51;;;;;;;8.30;3.50;;;20.60;67.80;;;;;;9181546;19;20022;-72
2023/08/22 00:53:59;;;;;;;7.03;3.63;;;20.60;67.80;;;;;;9180165;19;20381;-73
2023/08/22 00:57:07;;;;;;;7.60;4.03;;;20.60;68.00;;;;;;9180893;19;20023;-72
2023/08/22 01:00:13;;;;;;;7.63;3.50;;;20.60;68.00;;;;;;9179468;19;20021;-73
2023/08/22 01:03:21;;;;;;;9.57;3.80;;;20.60;68.10;;;;;;9177608;19;20017;-71
2023/08/22 01:06:35;;;;;;;8.13;3.60;;;20.50;68.10;;;;;;9179880;19;20007;-70
2023/08/22 01:09:51;;;;;;;10.55;3.75;;;20.60;68.30;;;;;;9180949;19;20018;-72
2023/08/22 01:13:04;;;;;;;13.93;4.30;;;20.50;68.40;;;;;;9181554;19;20026;-71
2023/08/22 01:16:12;;;;;;;11.02;4.15;;;20.50;68.40;;;;;;9181027;19;20025;-69
2023/08/22 01:19:20;;;;;;;9.55;3.58;;;20.40;68.40;;;;;;9180593;19;20018;-72
2023/08/22 01:22:30;;;;;;;7.68;3.50;;;20.40;68.50;;;;;;9177887;19;20018;-71
2023/08/22 01:25:36;;;;;;;7.95;4.22;;;20.40;68.60;;;;;;9179111;19;20089;-74
2023/08/22 01:28:48;;;;;;;10.70;4.40;;;20.40;68.50;;;;;;9180998;19;20040;-69
2023/08/22 01:31:59;;;;;;;10.85;3.97;;;20.40;68.70;;;;;;9179948;19;20022;-69
2023/08/22 01:35:09;;;;;;;11.25;4.60;;;20.40;68.80;;;;;;9181024;19;20030;-72
2023/08/22 01:38:18;;;;;;;7.45;4.18;;;20.30;68.70;;;;;;9177349;19;20381;-71
2023/08/22 01:41:26;;;;;;;7.60;4.10;;;20.30;68.80;;;;;;9180386;19;20025;-72
2023/08/22 01:44:31;;;;;;;9.18;4.35;;;20.30;68.80;;;;;;9172360;19;20793;-70
2023/08/22 01:47:39;;;;;;;12.63;4.85;;;20.30;68.90;;;;;;9177945;19;20014;-72
2023/08/22 01:50:45;;;;;;;7.70;4.13;;;20.20;68.90;;;;;;9178116;19;20010;-72
2023/08/22 01:53:55;;;;;;;14.88;4.93;;;20.20;69.10;;;;;;9179548;19;20011;-70
2023/08/22 01:57:00;;;;;;;10.38;4.45;;;20.10;69.20;;;;;;9179395;19;20376;-74
2023/08/22 02:00:10;;;;;;;11.85;4.70;;;20.10;69.10;;;;;;9177962;19;20045;-76
2023/08/22 02:03:18;;;;;;;15.50;5.75;;;20.10;69.20;;;;;;9178324;19;20107;-73
2023/08/22 02:06:26;;;;;;;10.88;4.90;;;20.10;69.30;;;;;;9178162;19;20373;-70
2023/08/22 02:09:34;;;;;;;10.60;5.15;;;20.10;69.40;;;;;;9179175;19;20003;-72
2023/08/22 02:12:42;;;;;;;11.90;5.07;;;20.00;69.50;;;;;;9179292;19;20018;-73
2023/08/22 02:15:48;;;;;;;10.05;4.93;;;20.00;69.50;;;;;;9177447;19;20026;-70
2023/08/22 02:18:56;;;;;;;10.70;4.97;;;20.00;69.50;;;;;;9176925;19;20357;-71
2023/08/22 02:22:02;;;;;;;10.80;5.35;;;20.00;69.60;;;;;;9178354;19;20014;-71
2023/08/22 02:25:14;;;;;;;14.52;5.25;;;19.90;69.60;;;;;;9176380;19;20420;-72
2023/08/22 02:28:20;;;;;;;13.73;5.10;;;19.90;69.80;;;;;;9175982;19;20030;-72
2023/08/22 02:31:27;;;;;;;11.95;6.05;;;19.90;69.80;;;;;;9178131;19;20018;-70
2023/08/22 02:34:32;;;;;;;19.42;5.93;;;19.90;69.80;;;;;;9176882;19;20106;-76
2023/08/22 02:37:40;;;;;;;14.57;5.07;;;19.90;69.90;;;;;;9176704;19;20774;-71
2023/08/22 02:40:48;;;;;;;13.35;5.75;;;19.80;70.00;;;;;;9177911;19;20014;-74
2023/08/22 02:43:56;;;;;;;11.43;5.55;;;19.80;70.10;;;;;;9169400;19;20015;-71
2023/08/22 02:47:02;;;;;;;14.80;6.15;;;19.80;70.20;;;;;;9177459;19;20029;-74
2023/08/22 02:50:10;;;;;;;11.57;5.80;;;19.70;70.30;;;;;;9175231;19;20030;-73
2023/08/22 02:53:16;;;;;;;17.15;6.07;;;19.70;70.30;;;;;;9176804;19;20345;-71
2023/08/22 02:56:27;;;;;;;13.20;5.63;;;19.70;70.40;;;;;;9176287;19;20135;-71
2023/08/22 02:59:33;;;;;;;13.18;5.80;;;19.70;70.60;;;;;;9175593;19;20391;-73
2023/08/22 03:02:41;;;;;;;14.65;6.05;;;19.70;70.60;;;;;;9176489;19;20011;-74
2023/08/22 03:05:47;;;;;;;13.25;6.18;;;19.70;70.60;;;;;;9176934;19;20006;-76
2023/08/22 03:08:55;;;;;;;14.73;6.13;;;19.70;70.70;;;;;;9176888;19;20030;-73
2023/08/22 03:12:03;;;;;;;22.42;6.10;;;19.60;70.80;;;;;;9174818;19;20018;-73
2023/08/22 03:15:11;;;;;;;12.75;6.00;;;19.60;70.90;;;;;;9174217;19;20022;-72
2023/08/22 03:18:19;;;;;;;20.23;5.78;;;19.60;70.90;;;;;;9175667;19;20021;-74
2023/08/22 03:21:26;;;;;;;16.23;6.10;;;19.60;71.00;;;;;;9174179;19;20022;-71
2023/08/22 03:24:33;;;;;;;13.55;5.47;;;19.50;71.00;;;;;;9173947;19;20033;-72
2023/08/22 03:27:43;;;;;;;10.77;6.05;;;19.50;71.00;;;;;;9174786;19;20018;-73
2023/08/22 03:30:49;;;;;;;10.43;5.47;;;19.50;71.10;;;;;;9176729;19;20019;-71
2023/08/22 03:33:57;;;;;;;7.80;5.00;;;19.50;71.10;;;;;;9175096;19;20011;-71
2023/08/22 03:37:02;;;;;;;9.55;5.30;;;19.50;71.20;;;;;;9175340;19;20011;-73
2023/08/22 03:40:11;;;;;;;9.40;5.70;;;19.40;71.20;;;;;;9175458;19;20098;-73
2023/08/22 03:43:21;;;;;;;7.78;5.40;;;19.40;71.30;;;;;;9169100;19;20142;-72
2023/08/22 03:46:28;;;;;;;12.48;5.70;;;19.40;71.40;;;;;;9173811;19;20019;-73
2023/08/22 03:49:46;;;;;;;10.77;6.25;;;19.30;71.30;;;;;;9172810;19;20015;-71
2023/08/22 03:52:54;;;;;;;9.05;5.57;;;19.30;71.40;;;;;;9172799;19;20018;-73
2023/08/22 03:56:00;;;;;;;8.88;5.63;;;19.30;71.40;;;;;;9174064;19;20021;-72
2023/08/22 03:59:14;;;;;;;9.80;5.70;;;19.30;71.50;;;;;;9172794;19;20339;-71
2023/08/22 04:02:19;;;;;;;16.10;6.38;;;19.20;71.50;;;;;;9178175;19;20014;-71
2023/08/22 04:05:27;;;;;;;10.05;5.70;;;19.20;71.50;;;;;;9182125;19;20669;-70
2023/08/22 04:08:32;;;;;;;11.13;5.70;;;19.20;71.60;;;;;;9183953;19;20018;-69
2023/08/22 04:11:40;;;;;;;13.35;6.68;;;19.10;71.70;;;;;;9181335;19;20011;-70
2023/08/22 04:14:48;;;;;;;8.57;5.45;;;19.10;71.70;;;;;;9183826;19;20021;-72
2023/08/22 04:17:56;;;;;;;9.10;5.78;;;19.00;71.80;;;;;;9181204;19;20015;-73
2023/08/22 04:21:01;;;;;;;15.98;5.78;;;19.00;72.40;;;;;;9180915;19;20044;-75
2023/08/22 04:24:09;;;;;;;13.40;5.82;;;19.00;71.80;;;;;;9182251;19;20018;-72
2023/08/22 04:27:15;;;;;;;10.70;5.88;;;18.90;71.90;;;;;;9181282;19;20654;-73
2023/08/22 04:30:26;;;;;;;18.98;6.38;;;18.90;72.00;;;;;;9181433;19;20495;-74
2023/08/22 04:33:32;;;;;;;12.70;5.93;;;18.90;72.10;;;;;;9182411;19;20019;-71
2023/08/22 04:36:40;;;;;;;8.77;5.38;;;18.90;72.10;;;;;;9181071;19;20026;-73
2023/08/22 04:39:45;;;;;;;10.32;5.78;;;18.80;72.10;;;;;;9180982;19;20096;-74
2023/08/22 04:43:28;;;;;;;9.05;5.50;;;18.80;72.20;;;;;;9172287;19;20022;-72
2023/08/22 04:46:37;;;;;;;10.43;5.70;;;18.70;72.10;;;;;;9180868;19;20016;-72
2023/08/22 04:49:45;;;;;;;11.60;6.30;;;18.80;72.40;;;;;;9177474;19;20014;-72
2023/08/22 04:52:51;;;;;;;14.73;6.15;;;18.70;72.90;;;;;;9179552;19;20021;-72
2023/08/22 04:55:58;;;;;;;13.10;6.57;;;18.90;74.40;;;;;;9182172;19;20014;-72
2023/08/22 04:59:04;;;;;;;10.98;6.30;;;18.70;74.80;;;;;;9180834;19;20014;-70
2023/08/22 05:02:16;;;;;;;8.88;5.72;;;18.80;72.90;;;;;;9180208;19;20010;-73
2023/08/22 05:05:21;;;;;;;13.20;6.38;;;18.70;73.30;;;;;;9178118;19;20025;-72
2023/08/22 05:08:29;;;;;;;6.60;5.43;;;18.70;73.20;;;;;;9181145;19;20015;-72
2023/08/22 05:11:34;;;;;;;15.82;5.78;;;18.70;73.40;;;;;;9179166;19;20011;-71
2023/08/22 05:14:43;;;;;;;10.73;6.50;;;18.70;73.70;;;;;;9177592;19;20495;-73
2023/08/22 05:17:51;;;;;;;13.23;6.70;;;18.70;73.90;;;;;;9179286;19;20018;-72
2023/08/22 05:20:58;;;;;;;11.93;5.47;;;18.70;74.60;;;;;;9179561;19;20372;-70
2023/08/22 05:24:05;;;;;;;17.15;6.70;;;18.70;74.80;;;;;;9178578;19;20006;-72
2023/08/22 05:27:13;;;;;;;13.93;6.90;;;18.80;75.20;;;;;;9178492;19;20021;-70
2023/08/22 05:30:19;;;;;;;11.85;6.60;;;18.80;76.10;;;;;;9179896;19;20502;-75
2023/08/22 05:33:29;;;;;;;15.73;6.53;;;18.80;76.60;;;;;;9180336;19;20475;-70
2023/08/22 05:36:34;;;;;;;11.93;7.00;;;18.90;75.70;;;;;;9179845;19;20029;-72
2023/08/22 05:39:42;;;;;;;15.98;7.10;;;18.80;75.60;;;;;;9179133;19;20021;-72
2023/08/22 05:42:47;;;;;;;15.32;6.40;;;18.80;75.40;;;;;;9174639;19;20740;-70
2023/08/22 05:45:55;;;;;;;16.95;8.30;;;18.80;76.00;;;;;;9177678;19;20019;-72
2023/08/22 05:49:03;;;;;;;16.25;7.15;;;18.80;77.20;;;;;;9175604;19;20081;-76
2023/08/22 05:52:10;;;;;;;10.35;7.25;;;18.90;80.00;;;;;;9177662;19;20019;-71
2023/08/22 05:55:16;;;;;;;17.08;8.25;;;18.90;82.70;;;;;;9176926;19;20021;-72
2023/08/22 05:58:24;;;;;;;15.85;8.57;;;18.90;80.50;;;;;;9177193;19;20018;-74
2023/08/22 06:01:31;;;;;;;20.10;8.73;;;19.10;78.90;;;;;;9176163;19;20019;-71
2023/08/22 06:04:43;;;;;;;16.40;9.10;;;19.10;78.00;;;;;;9175206;19;20006;-74
2023/08/22 06:07:48;;;;;;;20.10;9.75;;;19.10;78.40;;;;;;9177656;19;20543;-74
2023/08/22 06:10:56;;;;;;;23.80;9.30;;;19.10;78.40;;;;;;9177368;19;20014;-74
2023/08/22 06:14:02;;;;;;;19.80;8.73;;;19.20;79.10;;;;;;9175157;19;20095;-73
2023/08/22 06:17:10;;;;;;;16.67;9.00;;;19.30;79.10;;;;;;9176735;19;20300;-73
2023/08/22 06:20:18;;;;;;;19.23;10.10;;;19.20;79.20;;;;;;9177415;19;20018;-74
2023/08/22 06:23:26;;;;;;;15.30;9.05;;;19.40;78.70;;;;;;9176468;19;20023;-74
2023/08/22 06:26:33;;;;;;;15.23;9.18;;;19.50;79.60;;;;;;9176723;19;20048;-75
2023/08/22 06:29:41;;;;;;;24.90;9.88;;;19.50;79.10;;;;;;9176274;19;20014;-72
2023/08/22 06:32:46;;;;;;;17.45;9.43;;;19.60;79.60;;;;;;9176170;19;20027;-74
2023/08/22 06:35:56;;;;;;;20.50;10.15;;;19.60;79.60;;;;;;9176535;19;20360;-70
2023/08/22 06:39:09;;;;;;;15.70;8.70;;;19.70;79.30;;;;;;9176336;19;20078;-72
2023/08/22 06:42:17;;;;;;;19.83;10.05;;;19.80;80.20;;;;;;9176057;19;20034;-71
2023/08/22 06:45:27;;;;;;;17.67;9.95;;;19.80;80.10;;;;;;9174797;19;20034;-71
2023/08/22 06:48:34;;;;;;;23.85;9.55;;;19.90;80.50;;;;;;9176516;19;20033;-71
2023/08/22 06:51:49;;;;;;;16.80;9.10;;;20.00;80.70;;;;;;9174094;19;20156;-71
2023/08/22 06:55:00;;;;;;;18.88;9.27;;;20.00;81.30;;;;;;9176995;19;20034;-71
2023/08/22 06:58:09;;;;;;;16.15;9.45;;;20.10;83.60;;;;;;9177433;19;20036;-72
2023/08/22 07:01:17;;;;;;;16.70;8.88;;;20.20;85.40;;;;;;9176870;19;20021;-72
2023/08/22 07:04:29;;;;;;;15.98;9.60;;;20.30;85.90;;;;;;9175250;19;20018;-72
2023/08/22 07:07:41;;;;;;;12.93;8.57;;;20.40;86.00;;;;;;9174396;19;20017;-71
2023/08/22 07:10:47;;;;;;;19.38;9.55;;;20.40;85.90;;;;;;9175016;19;20050;-70
2023/08/22 07:13:58;;;;;;;19.10;10.25;;;20.50;87.30;;;;;;9176906;19;20477;-70
2023/08/22 07:17:07;;;;;;;15.40;9.70;;;20.60;90.80;;;;;;9176391;19;20018;-70
2023/08/22 07:20:17;;;;;;;18.83;9.60;;;20.70;83.50;;;;;;9175918;19;20495;-71
2023/08/22 07:23:25;;;;;;;20.23;8.82;;;20.90;82.80;;;;;;9174098;19;20026;-70
2023/08/22 07:26:32;;;;;;;17.15;8.90;;;21.10;81.30;;;;;;9174245;19;20025;-71
2023/08/22 07:29:38;;;;;;;14.48;8.68;;;21.30;81.40;;;;;;9173435;19;20074;-70
2023/08/22 07:32:45;;;;;;;16.45;8.15;;;21.60;80.80;;;;;;9175918;19;20014;-71
2023/08/22 07:35:50;;;;;;;15.20;7.90;;;21.90;80.50;;;;;;9176749;19;20011;-70
2023/08/22 07:39:00;;;;;;;13.40;7.55;;;22.20;79.70;;;;;;9183454;19;20011;-70
2023/08/22 07:42:06;;;;;;;16.48;7.32;;;22.50;79.30;;;;;;9181231;19;20400;-71
2023/08/22 07:45:13;;;;;;;14.65;6.60;;;22.80;78.90;;;;;;9179568;19;20019;-70
2023/08/22 07:48:19;;;;;;;14.25;6.45;;;23.00;79.00;;;;;;9181196;19;20055;-71
2023/08/22 07:51:26;;;;;;;8.88;4.55;;;23.30;79.00;;;;;;9184509;19;20025;-70
2023/08/22 07:54:34;;;;;;;10.77;4.65;;;23.50;78.90;;;;;;9183884;19;20018;-70
2023/08/22 07:57:41;;;;;;;12.70;5.18;;;23.70;78.70;;;;;;9183744;19;20022;-70
2023/08/22 08:00:49;;;;;;;18.45;5.93;;;23.90;78.00;;;;;;9185075;19;20014;-70
2023/08/22 08:03:57;;;;;;;8.55;4.05;;;24.10;78.10;;;;;;9184028;19;20582;-71
2023/08/22 08:07:03;;;;;;;9.25;4.20;;;24.20;77.80;;;;;;9180957;19;20483;-71
2023/08/22 08:10:13;;;;;;;14.05;3.72;;;24.30;77.60;;;;;;9183436;19;20017;-72
2023/08/22 08:13:19;;;;;;;7.40;3.78;;;24.50;77.20;;;;;;9183844;19;20022;-72
2023/08/22 08:16:26;;;;;;;9.13;3.20;;;24.60;77.30;;;;;;9181542;19;20010;-72
2023/08/22 08:19:39;;;;;;;12.18;3.08;;;24.80;76.80;;;;;;9182286;19;20030;-72
2023/08/22 08:22:46;;;;;;;6.05;2.45;;;25.00;76.90;;;;;;9178378;19;20015;-71
2023/08/22 08:25:54;;;;;;;5.85;2.35;;;25.20;76.40;;;;;;9165744;19;20025;-71
2023/08/22 08:29:02;;;;;;;4.03;2.40;;;25.30;76.70;;;;;;9167810;19;20015;-71
2023/08/22 08:32:07;;;;;;;2.97;1.60;;;25.40;75.50;;;;;;9168135;19;20026;-71
2023/08/22 08:35:15;;;;;;;5.35;1.45;;;25.40;75.50;;;;;;9168571;19;20376;-71
2023/08/22 08:38:20;;;;;;;5.25;1.60;;;25.60;81.80;;;;;;9168958;19;20066;-71
2023/08/22 08:41:35;;;;;;;4.05;1.23;;;25.50;68.30;;;;;;9167701;19;20498;-71
2023/08/22 08:44:41;;;;;;;2.95;1.40;;;25.60;67.70;;;;;;9156532;19;20060;-70
2023/08/22 08:47:49;;;;;;;2.92;1.20;;;25.60;67.60;;;;;;9162388;19;20015;-71
2023/08/22 08:50:56;;;;;;;3.33;0.88;;;25.70;67.40;;;;;;9167725;19;20015;-71
2023/08/22 08:54:04;;;;;;;3.40;1.20;;;25.70;67.10;;;;;;9167297;19;20014;-71
2023/08/22 08:57:12;;;;;;;5.20;0.70;;;25.70;66.80;;;;;;9166064;19;20041;-72
2023/08/22 09:00:20;;;;;;;2.08;0.93;;;25.80;66.50;;;;;;9167099;19;20015;-72
2023/08/22 09:03:26;;;;;;;5.13;1.40;;;25.80;66.40;;;;;;9164120;19;20017;-71
2023/08/22 09:06:33;;;;;;;5.25;1.33;;;25.90;66.10;;;;;;9167022;19;20099;-71
2023/08/22 09:09:39;;;;;;;5.75;1.13;;;26.00;65.90;;;;;;9164593;19;20410;-71
2023/08/22 09:12:49;;;;;;;5.55;1.63;;;26.00;65.70;;;;;;9166623;19;20015;-71
2023/08/22 09:15:59;;;;;;;5.75;1.05;;;26.10;65.50;;;;;;9165217;19;20007;-71
2023/08/22 09:19:07;;;;;;;4.25;1.42;;;26.20;65.40;;;;;;9165249;19;20018;-71
2023/08/22 09:22:15;;;;;;;5.70;1.40;;;26.30;65.40;;;;;;9166470;19;20010;-71
2023/08/22 09:25:23;;;;;;;7.80;1.98;;;26.30;65.00;;;;;;9163690;19;20015;-71
2023/08/22 09:28:33;;;;;;;3.25;1.50;;;26.50;65.10;;;;;;9164053;19;20018;-71
2023/08/22 09:31:38;;;;;;;6.97;1.60;;;26.50;64.70;;;;;;9165495;19;20086;-71
2023/08/22 09:34:55;;;;;;;6.57;2.35;;;26.60;64.60;;;;;;9165806;19;20448;-71
2023/08/22 09:38:10;;;;;;;5.70;1.73;;;26.70;64.20;;;;;;9164573;19;20022;-71
2023/08/22 09:41:24;;;;;;;7.25;1.45;;;26.80;64.10;;;;;;9164358;19;20360;-70
2023/08/22 09:44:41;;;;;;;8.77;1.85;;;26.90;64.10;;;;;;9159623;19;20018;-71
2023/08/22 09:47:53;;;;;;;6.53;1.70;;;26.90;64.10;;;;;;9159452;19;20015;-71
2023/08/22 09:51:02;;;;;;;4.88;1.98;;;27.00;63.90;;;;;;9161902;19;20015;-72
2023/08/22 09:54:10;;;;;;;7.55;2.38;;;27.00;63.70;;;;;;9164946;19;20022;-71
2023/08/22 09:57:15;;;;;;;6.72;1.80;;;27.10;63.60;;;;;;9164606;19;20540;-72
2023/08/22 10:00:30;;;;;;;8.93;1.67;;;27.20;63.50;;;;;;9161392;19;20015;-71
2023/08/22 10:03:39;;;;;;;9.77;1.98;;;27.30;63.40;;;;;;9165305;19;20020;-71
2023/08/22 10:06:49;;;;;;;6.70;2.10;;;27.30;63.20;;;;;;9164071;19;20018;-74
2023/08/22 10:09:59;;;;;;;5.75;2.00;;;27.40;63.00;;;;;;9163971;19;20023;-76
2023/08/22 10:13:08;;;;;;;6.32;2.45;;;27.50;62.90;;;;;;9165172;19;20018;-72
2023/08/22 10:16:20;;;;;;;4.78;1.63;;;27.50;62.50;;;;;;9163616;19;20010;-71
2023/08/22 10:19:29;;;;;;;8.43;1.90;;;27.50;62.20;;;;;;9162866;19;20469;-70
2023/08/22 10:22:35;;;;;;;4.95;2.33;;;27.60;62.20;;;;;;9164461;19;20025;-72
2023/08/22 10:25:51;;;;;;;8.15;2.25;;;27.60;62.10;;;;;;9163740;19;20452;-71
2023/08/22 10:29:15;;;;;;;8.15;2.85;;;27.60;62.00;;;;;;9161922;19;20010;-71
2023/08/22 10:32:31;;;;;;;7.55;2.40;;;27.60;61.90;;;;;;9161664;19;20094;-71
2023/08/22 10:35:37;;;;;;;5.28;2.10;;;27.60;62.00;;;;;;9161347;19;20380;-72
2023/08/22 10:38:54;;;;;;;7.68;2.25;;;27.60;61.90;;;;;;9163002;19;20094;-72
2023/08/22 10:41:59;;;;;;;14.15;2.70;;;27.70;61.70;;;;;;9158652;19;20495;-72
2023/08/22 10:45:19;;;;;;;7.30;2.78;;;27.70;61.80;;;;;;9149089;19;20021;-71
2023/08/22 10:48:27;;;;;;;9.00;3.20;;;27.70;61.50;;;;;;9159552;19;20358;-71
2023/08/22 10:51:45;;;;;;;11.30;2.38;;;27.70;61.40;;;;;;9157078;19;20007;-71
2023/08/22 10:55:09;;;;;;;6.53;2.35;;;27.80;61.30;;;;;;9155074;19;20364;-71
2023/08/22 10:58:35;;;;;;;7.53;2.17;;;27.70;61.10;;;;;;9159231;19;20022;-71
2023/08/22 11:01:41;;;;;;;5.65;2.38;;;27.80;61.00;;;;;;9154475;19;20014;-72
2023/08/22 11:04:51;;;;;;;12.43;3.00;;;27.90;61.20;;;;;;9160529;19;20015;-72
2023/08/22 11:07:57;;;;;;;9.38;2.13;;;27.90;60.90;;;;;;9161607;19;20015;-71
2023/08/22 11:11:05;;;;;;;6.15;2.15;;;27.90;60.80;;;;;;9159914;19;20007;-72
2023/08/22 11:14:10;;;;;;;7.65;2.83;;;28.00;60.70;;;;;;9161283;19;20057;-71
2023/08/22 11:17:18;;;;;;;7.25;2.30;;;28.00;60.40;;;;;;9155010;19;20018;-71
2023/08/22 11:20:26;;;;;;;5.93;2.30;;;28.00;60.30;;;;;;9152770;19;20560;-71
2023/08/22 11:23:34;;;;;;;5.75;2.28;;;28.00;60.10;;;;;;9159268;19;20019;-71
2023/08/22 11:26:40;;;;;;;8.07;2.65;;;28.00;60.00;;;;;;9151938;19;20463;-71
2023/08/22 11:29:49;;;;;;;5.53;2.00;;;28.00;60.00;;;;;;9159807;19;20855;-71
2023/08/22 11:32:55;;;;;;;7.30;1.80;;;28.00;59.90;;;;;;9157748;19;20019;-71
2023/08/22 11:36:05;;;;;;;10.20;2.55;;;28.00;59.80;;;;;;9156623;19;20376;-71
2023/08/22 11:39:11;;;;;;;6.20;1.95;;;27.90;59.60;;;;;;9157988;19;20022;-71
2023/08/22 11:42:19;;;;;;;6.18;1.95;;;27.90;59.80;;;;;;9158561;19;20018;-72
2023/08/22 11:45:25;;;;;;;6.00;2.05;;;27.90;59.80;;;;;;9158179;19;21019;-71
2023/08/22 11:48:32;;;;;;;8.82;1.88;;;27.80;59.70;;;;;;9155346;19;20022;-71
2023/08/22 11:51:40;;;;;;;4.30;1.67;;;27.80;59.70;;;;;;9152279;19;20025;-71
2023/08/22 11:54:48;;;;;;;6.18;1.60;;;27.80;59.40;;;;;;9160653;19;20011;-70
2023/08/22 11:57:56;;;;;;;3.58;1.15;;;27.70;59.40;;;;;;9154694;19;20014;-71
2023/08/22 12:01:04;;;;;;;3.60;1.20;;;27.70;59.30;;;;;;9154077;19;20006;-71
2023/08/22 12:04:09;;;;;;;10.75;1.55;;;27.70;59.10;;;;;;9149032;19;20053;-71
2023/08/22 12:07:19;;;;;;;5.38;1.40;;;27.60;58.90;;;;;;9152176;19;20371;-71
2023/08/22 12:10:25;;;;;;;6.90;1.80;;;27.60;59.00;;;;;;9148113;19;20019;-71
2023/08/22 12:13:32;;;;;;;6.07;1.38;;;27.60;59.20;;;;;;9151081;19;20030;-71
2023/08/22 12:16:52;;;;;;;5.18;1.60;;;27.60;59.20;;;;;;9152367;19;20030;-72
2023/08/22 12:20:00;;;;;;;3.80;1.20;;;27.60;59.10;;;;;;9149030;19;20554;-71
2023/08/22 12:23:09;;;;;;;3.75;1.20;;;27.50;58.90;;;;;;9156967;19;20023;-71
2023/08/22 12:26:16;;;;;;;4.80;1.38;;;27.50;58.70;;;;;;9160737;19;20022;-71
2023/08/22 12:29:22;;;;;;;7.10;1.52;;;27.40;58.70;;;;;;9155655;19;20384;-72
2023/08/22 12:32:29;;;;;;;4.45;1.15;;;27.40;58.60;;;;;;9158542;19;20364;-70
2023/08/22 12:35:40;;;;;;;3.40;1.20;;;27.30;58.60;;;;;;9162294;19;20025;-71
2023/08/22 12:38:50;;;;;;;6.18;1.00;;;27.40;58.60;;;;;;9160668;19;20010;-72
2023/08/22 12:41:55;;;;;;;7.38;1.48;;;27.30;58.40;;;;;;9159155;19;20021;-71
2023/08/22 12:45:03;;;;;;;3.30;1.33;;;27.30;58.40;;;;;;9155492;19;20606;-71
2023/08/22 12:48:08;;;;;;;4.30;0.80;;;27.30;58.40;;;;;;9157274;19;20457;-71
2023/08/22 12:51:16;;;;;;;8.55;1.23;;;27.20;58.20;;;;;;9158358;19;20428;-70
2023/08/22 12:54:24;;;;;;;3.58;1.10;;;27.20;58.10;;;;;;9158473;19;20021;-71
2023/08/22 12:57:31;;;;;;;2.65;1.35;;;27.20;58.00;;;;;;9157675;19;20534;-71
2023/08/22 13:00:36;;;;;;;3.45;0.82;;;27.10;57.90;;;;;;9158223;19;20094;-71
2023/08/22 13:03:46;;;;;;;2.28;0.63;;;27.10;57.60;;;;;;9161498;19;20382;-70
2023/08/22 13:06:51;;;;;;;1.70;0.80;;;27.10;57.60;;;;;;9158587;19;20011;-72
2023/08/22 13:10:03;;;;;;;5.22;0.50;;;27.10;57.40;;;;;;9156339;19;20368;-72
2023/08/22 13:13:12;;;;;;;3.88;0.40;;;27.20;57.30;;;;;;9158791;19;20733;-72
2023/08/22 13:16:19;;;;;;;4.20;1.25;;;27.00;57.00;;;;;;9160501;19;20017;-72
2023/08/22 13:19:27;;;;;;;1.13;0.50;;;27.20;57.00;;;;;;9158436;19;20018;-76
2023/08/22 13:22:35;;;;;;;0.30;0.30;;;27.30;56.90;;;;;;9160878;19;20022;-72
2023/08/22 13:25:43;;;;;;;2.22;0.50;;;27.40;56.70;;;;;;9155925;19;20032;-72
2023/08/22 13:28:51;;;;;;;0.93;0.40;;;27.40;56.20;;;;;;9156577;19;20006;-72
2023/08/22 13:31:56;;;;;;;2.80;0.80;;;27.40;56.20;;;;;;9156681;19;20006;-70
2023/08/22 13:35:03;;;;;;;2.72;0.28;;;27.40;56.20;;;;;;9157237;19;20021;-71
2023/08/22 13:38:09;;;;;;;3.47;1.55;;;27.40;56.10;;;;;;9157152;19;20023;-70
2023/08/22 13:41:21;;;;;;;2.08;0.50;;;27.40;56.10;;;;;;9158720;19;20013;-71
2023/08/22 13:44:27;;;;;;;3.78;0.60;;;27.50;55.80;;;;;;9154989;19;20094;-71
2023/08/22 13:47:34;;;;;;;0.88;0.40;;;27.50;55.90;;;;;;9157447;19;20720;-72
2023/08/22 13:50:41;;;;;;;1.65;0.60;;;27.50;55.60;;;;;;9154224;19;20022;-73
2023/08/22 13:53:48;;;;;;;0.55;0.40;;;27.60;55.70;;;;;;9155783;19;20371;-73
2023/08/22 13:56:56;;;;;;;2.50;0.60;;;27.60;55.50;;;;;;9157906;19;20063;-70
2023/08/22 14:00:04;;;;;;;3.03;0.40;;;27.50;55.10;;;;;;9156251;19;20353;-72
2023/08/22 14:03:09;;;;;;;1.48;0.43;;;27.50;55.20;;;;;;9156744;19;20018;-71
2023/08/22 14:06:17;;;;;;;3.13;1.02;;;27.50;55.10;;;;;;9158614;19;20021;-71
2023/08/22 14:09:22;;;;;;;2.78;0.60;;;27.40;55.10;;;;;;9156078;19;20716;-70
2023/08/22 14:12:35;;;;;;;5.13;0.65;;;27.50;55.10;;;;;;9156283;19;20014;-71
2023/08/22 14:15:41;;;;;;;4.80;0.70;;;27.50;54.90;;;;;;9155716;19;20031;-70
2023/08/22 14:18:48;;;;;;;3.60;0.60;;;27.50;54.90;;;;;;9157539;19;20015;-70
2023/08/22 14:21:53;;;;;;;4.45;0.75;;;27.50;55.10;;;;;;9156176;19;20022;-71
2023/08/22 14:25:03;;;;;;;5.55;0.60;;;27.50;55.00;;;;;;9156243;19;20821;-72
2023/08/22 14:28:11;;;;;;;24.38;1.10;;;27.50;54.90;;;;;;9156859;19;21219;-72
2023/08/22 14:31:18;;;;;;;2.97;0.90;;;27.50;54.90;;;;;;9160806;19;20014;-72
2023/08/22 14:34:24;;;;;;;3.60;0.73;;;27.60;55.10;;;;;;9155998;19;20816;-73
2023/08/22 14:37:32;;;;;;;3.40;1.00;;;27.60;55.10;;;;;;9152865;19;20022;-72
2023/08/22 14:40:38;;;;;;;2.55;1.00;;;27.70;55.10;;;;;;9151906;19;20543;-72
2023/08/22 14:43:48;;;;;;;3.50;0.65;;;27.80;55.10;;;;;;9153488;19;20013;-72
2023/08/22 14:46:53;;;;;;;3.63;0.90;;;27.90;55.00;;;;;;9154866;19;20018;-70
2023/08/22 14:50:01;;;;;;;7.60;1.00;;;27.90;55.10;;;;;;9152986;19;20707;-70
2023/08/22 14:53:06;;;;;;;2.50;0.65;;;28.00;55.00;;;;;;9154395;19;20029;-70
2023/08/22 14:56:14;;;;;;;2.83;0.95;;;28.00;54.90;;;;;;9153394;19;20392;-71
2023/08/22 14:59:23;;;;;;;2.42;0.60;;;28.00;54.70;;;;;;9152781;19;20053;-71
2023/08/22 15:02:30;;;;;;;1.75;0.50;;;28.00;54.50;;;;;;9159192;19;20011;-70
2023/08/22 15:05:39;;;;;;;6.20;1.10;;;28.00;54.50;;;;;;9157254;19;20452;-71
2023/08/22 15:08:47;;;;;;;5.30;0.80;;;28.00;54.40;;;;;;9156392;19;20015;-71
2023/08/22 15:11:52;;;;;;;4.00;1.08;;;28.00;54.40;;;;;;9152858;19;20036;-71
2023/08/22 15:15:03;;;;;;;2.25;0.75;;;28.00;54.40;;;;;;9153971;19;20646;-71
2023/08/22 15:18:08;;;;;;;3.17;0.98;;;28.00;54.30;;;;;;9150962;19;20019;-71
2023/08/22 15:21:16;;;;;;;1.60;0.82;;;28.00;54.40;;;;;;9155042;19;20476;-72
2023/08/22 15:24:21;;;;;;;3.25;0.90;;;28.00;54.30;;;;;;9154360;19;20383;-71
2023/08/22 15:27:31;;;;;;;3.97;0.80;;;28.00;54.20;;;;;;9154042;19;20389;-71
2023/08/22 15:30:39;;;;;;;2.40;0.75;;;28.00;54.20;;;;;;9151221;19;20035;-71
2023/08/22 15:33:47;;;;;;;2.60;0.82;;;28.00;54.20;;;;;;9153782;19;20018;-71
2023/08/22 15:36:53;;;;;;;2.03;0.65;;;28.00;54.20;;;;;;9152833;19;20018;-71
2023/08/22 15:40:04;;;;;;;3.80;1.05;;;28.00;54.20;;;;;;9154223;19;20043;-72
2023/08/22 15:43:09;;;;;;;2.28;0.90;;;28.00;54.10;;;;;;9147002;19;20483;-71
2023/08/22 15:46:19;;;;;;;6.80;0.77;;;28.00;54.00;;;;;;9153355;19;20018;-69
2023/08/22 15:49:24;;;;;;;2.50;0.82;;;27.90;54.00;;;;;;9151661;19;20015;-72
2023/08/22 15:52:32;;;;;;;2.45;1.30;;;27.90;54.00;;;;;;9151195;19;20007;-72
2023/08/22 15:55:45;;;;;;;1.55;0.70;;;27.80;54.10;;;;;;9154973;19;20475;-72
2023/08/22 15:58:53;;;;;;;2.45;0.85;;;27.80;54.10;;;;;;9161729;19;20010;-72
2023/08/22 16:02:01;;;;;;;2.63;0.73;;;27.80;54.20;;;;;;9159949;19;20574;-72
2023/08/22 16:05:09;;;;;;;3.75;1.40;;;27.80;54.30;;;;;;9161892;19;20010;-72
2023/08/22 16:08:14;;;;;;;4.47;0.98;;;27.80;54.30;;;;;;9159746;19;20030;-71
2023/08/22 16:11:22;;;;;;;3.70;0.70;;;27.70;54.70;;;;;;9157385;19;20018;-71
2023/08/22 16:14:27;;;;;;;3.28;1.00;;;27.70;54.20;;;;;;9161441;19;20014;-71